createdAt,value
2023-06-20T00:03:39.663Z,75.29
2023-06-20T00:08:43.661Z,75.00
2023-06-20T00:13:47.683Z,74.51
2023-06-20T00:18:55.657Z,74.44
2023-06-20T00:23:59.767Z,74.65
2023-06-20T00:29:03.879Z,74.90
2023-06-20T00:34:07.925Z,75.47
2023-06-20T00:39:12.464Z,75.60
2023-06-20T00:44:16.403Z,75.75
2023-06-20T00:49:20.699Z,75.94
2023-06-20T00:54:24.848Z,76.00
2023-06-20T00:59:28.664Z,76.11
2023-06-20T01:04:33.217Z,76.49
2023-06-20T01:09:58.748Z,76.59
2023-06-20T01:15:29.718Z,76.80
2023-06-20T01:20:46.046Z,76.83
2023-06-20T01:25:53.642Z,77.09
2023-06-20T01:31:12.890Z,77.45
2023-06-20T01:36:23.152Z,77.39
2023-06-20T01:41:30.324Z,77.21
2023-06-20T01:46:36.886Z,76.86
2023-06-20T01:51:42.137Z,76.93
2023-06-20T01:56:48.940Z,77.35
2023-06-20T02:01:55.169Z,77.50
2023-06-20T02:07:00.383Z,77.74
2023-06-20T02:12:07.915Z,77.79
2023-06-20T02:17:15.648Z,77.96
2023-06-20T02:22:24.628Z,77.97
2023-06-20T02:27:28.815Z,78.08
2023-06-20T02:32:34.960Z,78.12
2023-06-20T02:37:42.231Z,78.14
2023-06-20T02:42:46.529Z,78.51
2023-06-20T02:48:28.976Z,78.82
2023-06-20T02:53:46.444Z,78.65
2023-06-20T02:58:55.955Z,78.38
2023-06-20T03:04:06.087Z,78.51
2023-06-20T03:09:12.347Z,78.41
2023-06-20T03:14:16.134Z,79.04
2023-06-20T03:19:20.095Z,79.57
2023-06-20T03:24:24.393Z,79.91
2023-06-20T03:29:28.463Z,80.36
2023-06-20T03:34:32.696Z,80.67
2023-06-20T03:39:36.838Z,80.39
2023-06-20T03:44:41.072Z,80.46
2023-06-20T03:49:45.636Z,80.61
2023-06-20T03:54:49.844Z,80.39
2023-06-20T03:59:54.139Z,80.23
2023-06-20T04:04:59.150Z,80.30
2023-06-20T04:10:04.412Z,80.54
2023-06-20T04:15:10.136Z,80.44
2023-06-20T04:20:14.850Z,80.25
2023-06-20T04:25:18.956Z,80.21
2023-06-20T04:30:25.941Z,79.91
2023-06-20T04:35:30.100Z,79.82
2023-06-20T04:40:34.422Z,79.24
2023-06-20T04:45:40.398Z,78.88
2023-06-20T04:50:45.669Z,78.55
2023-06-20T04:55:55.561Z,78.18
2023-06-20T05:01:05.247Z,77.51
2023-06-20T05:06:10.355Z,77.29
2023-06-20T05:11:14.685Z,76.19
2023-06-20T05:16:19.097Z,74.31
2023-06-20T05:21:23.462Z,73.44
2023-06-20T05:26:28.119Z,72.71
2023-06-20T05:31:32.449Z,72.85
2023-06-20T05:36:36.693Z,72.90
2023-06-20T05:41:41.134Z,72.60
2023-06-20T05:46:45.496Z,71.61
2023-06-20T05:51:50.120Z,71.10
2023-06-20T05:56:54.660Z,70.60
2023-06-20T06:01:59.712Z,70.15
2023-06-20T06:07:09.217Z,70.07
2023-06-20T06:12:13.514Z,69.31
2023-06-20T06:17:19.223Z,68.69
2023-06-20T06:22:23.529Z,68.56
2023-06-20T06:27:27.670Z,67.76
2023-06-20T06:32:39.454Z,66.94
2023-06-20T06:37:44.427Z,66.04
2023-06-20T06:42:48.973Z,65.42
2023-06-20T06:47:53.332Z,62.40
2023-06-20T06:52:57.850Z,62.33
2023-06-20T06:58:02.899Z,61.66
2023-06-20T07:03:10.144Z,60.80
2023-06-20T07:08:15.572Z,59.98
2023-06-20T07:13:20.024Z,59.21
2023-06-20T07:18:25.077Z,58.37
2023-06-20T07:23:30.032Z,57.17
2023-06-20T07:28:34.388Z,55.92
2023-06-20T07:33:38.845Z,54.82
2023-06-20T07:38:43.548Z,54.72
2023-06-20T07:43:47.819Z,53.78
2023-06-20T07:48:52.136Z,53.72
2023-06-20T07:53:56.376Z,54.23
2023-06-20T07:59:00.870Z,53.53
2023-06-20T08:04:06.169Z,53.57
2023-06-20T08:09:10.418Z,53.31
2023-06-20T08:14:15.604Z,52.22
2023-06-20T08:19:19.996Z,51.79
2023-06-20T08:24:24.823Z,51.39
2023-06-20T08:29:29.096Z,50.56
2023-06-20T08:34:33.297Z,51.63
2023-06-20T08:39:37.666Z,49.85
2023-06-20T08:44:56.195Z,48.83
2023-06-20T08:50:02.511Z,48.36
2023-06-20T08:55:07.497Z,48.29
2023-06-20T09:00:16.935Z,47.58
2023-06-20T09:05:21.781Z,47.67
2023-06-20T09:10:27.643Z,47.44
2023-06-20T09:15:32.014Z,46.03
2023-06-20T09:20:37.268Z,43.81
2023-06-20T09:25:42.420Z,43.40
2023-06-20T09:30:49.950Z,42.39
2023-06-20T09:35:55.306Z,42.19
2023-06-20T09:40:59.470Z,41.95
2023-06-20T09:46:04.393Z,41.07
2023-06-20T09:51:12.227Z,40.83
2023-06-20T09:56:20.022Z,40.19
2023-06-20T10:01:25.111Z,40.30
2023-06-20T10:06:31.437Z,40.10
2023-06-20T10:11:42.436Z,39.70
2023-06-20T10:16:53.558Z,40.09
2023-06-20T10:22:02.970Z,40.19
2023-06-20T10:27:08.867Z,40.03
2023-06-20T10:32:15.031Z,40.21
2023-06-20T10:37:39.946Z,40.58
2023-06-20T10:42:45.546Z,41.14
2023-06-20T10:47:52.040Z,41.81
2023-06-20T10:52:56.276Z,40.83
2023-06-20T10:58:00.828Z,40.94
2023-06-20T11:03:05.476Z,41.29
2023-06-20T11:08:10.089Z,40.83
2023-06-20T11:13:14.660Z,42.17
2023-06-20T11:18:19.427Z,41.70
2023-06-20T11:23:24.157Z,40.72
2023-06-20T11:28:28.599Z,41.23
2023-06-20T11:33:32.834Z,42.01
2023-06-20T11:38:40.863Z,41.51
2023-06-20T11:43:45.726Z,39.47
2023-06-20T11:48:53.676Z,39.08
2023-06-20T11:54:08.891Z,38.74
2023-06-20T11:59:13.764Z,38.31
2023-06-20T12:04:23.224Z,38.32
2023-06-20T12:09:30.034Z,37.43
2023-06-20T12:14:34.268Z,36.72
2023-06-20T12:19:52.245Z,36.26
2023-06-20T12:24:56.140Z,37.63
2023-06-20T12:30:00.215Z,36.66
2023-06-20T12:35:05.027Z,36.69
2023-06-20T12:40:11.324Z,36.85
2023-06-20T12:45:15.346Z,35.92
2023-06-20T12:50:19.579Z,36.84
2023-06-20T12:55:23.699Z,36.79
2023-06-20T13:00:30.648Z,37.32
2023-06-20T13:05:34.940Z,37.88
2023-06-20T13:10:38.886Z,38.42
2023-06-20T13:15:44.178Z,37.33
2023-06-20T13:20:51.197Z,37.38
2023-06-20T13:25:56.736Z,37.71
2023-06-20T13:31:00.749Z,38.05
2023-06-20T13:36:09.288Z,37.94
2023-06-20T13:41:13.297Z,38.08
2023-06-20T13:46:17.671Z,37.83
2023-06-20T13:51:21.714Z,37.72
2023-06-20T13:56:26.572Z,37.70
2023-06-20T14:01:30.910Z,38.27
2023-06-20T14:06:36.009Z,38.42
2023-06-20T14:11:40.224Z,38.24
2023-06-20T14:16:44.423Z,38.04
2023-06-20T14:21:48.829Z,37.99
2023-06-20T14:26:53.264Z,38.38
2023-06-20T14:31:57.360Z,38.76
2023-06-20T14:37:02.682Z,38.58
2023-06-20T14:42:07.296Z,38.22
2023-06-20T14:47:11.854Z,38.47
2023-06-20T14:52:16.713Z,38.25
2023-06-20T14:57:20.525Z,38.08
2023-06-20T15:02:25.007Z,38.93
2023-06-20T15:07:28.948Z,38.94
2023-06-20T15:12:35.919Z,38.88
2023-06-20T15:17:40.506Z,38.17
2023-06-20T15:22:44.672Z,38.56
2023-06-20T15:27:48.650Z,37.95
2023-06-20T15:32:53.085Z,37.21
2023-06-20T15:37:58.353Z,37.26
2023-06-20T15:43:02.150Z,38.13
2023-06-20T15:48:07.152Z,38.03
2023-06-20T15:53:11.843Z,37.22
2023-06-20T15:58:15.777Z,37.40
2023-06-20T16:03:19.882Z,37.08
2023-06-20T16:08:24.765Z,37.55
2023-06-20T16:13:28.880Z,37.26
2023-06-20T16:18:33.031Z,36.83
2023-06-20T16:23:39.447Z,36.86
2023-06-20T16:28:43.557Z,37.33
2023-06-20T16:33:50.790Z,38.28
2023-06-20T16:38:55.425Z,37.93
2023-06-20T16:43:59.216Z,38.94
2023-06-20T16:49:03.162Z,39.51
2023-06-20T16:54:07.501Z,39.85
2023-06-20T16:59:11.432Z,40.15
2023-06-20T17:04:15.606Z,41.04
2023-06-20T17:09:19.481Z,41.78
2023-06-20T17:14:23.721Z,42.47
2023-06-20T17:19:29.055Z,43.31
2023-06-20T17:24:34.463Z,44.21
2023-06-20T17:29:44.337Z,44.70
2023-06-20T17:34:51.247Z,45.19
2023-06-20T17:39:56.383Z,45.76
2023-06-20T17:45:04.705Z,46.53
2023-06-20T17:50:12.745Z,47.20
2023-06-20T17:55:18.209Z,47.85
2023-06-20T18:00:24.920Z,48.38
2023-06-20T18:05:30.682Z,48.94
2023-06-20T18:10:34.782Z,50.31
2023-06-20T18:15:40.924Z,51.69
2023-06-20T18:20:45.328Z,52.60
2023-06-20T18:25:49.002Z,53.10
2023-06-20T18:30:53.525Z,54.01
2023-06-20T18:35:58.222Z,55.15
2023-06-20T18:41:02.285Z,56.08
2023-06-20T18:46:06.182Z,56.92
2023-06-20T18:51:10.219Z,57.38
2023-06-20T18:56:15.690Z,57.58
2023-06-20T19:01:21.516Z,57.47
2023-06-20T19:06:26.212Z,57.47
2023-06-20T19:11:30.843Z,57.96
2023-06-20T19:16:37.138Z,58.90
2023-06-20T19:21:42.591Z,59.88
2023-06-20T19:26:47.343Z,60.85
2023-06-20T19:31:52.401Z,61.69
2023-06-20T19:36:57.157Z,62.23
2023-06-20T19:42:01.588Z,62.76
2023-06-20T19:47:05.720Z,63.15
2023-06-20T19:52:11.671Z,63.37
2023-06-20T19:57:18.088Z,63.83
2023-06-20T20:02:28.088Z,64.33
2023-06-20T20:07:32.620Z,64.76
2023-06-20T20:12:43.106Z,65.08
2023-06-20T20:17:47.202Z,65.69
2023-06-20T20:22:51.474Z,66.56
2023-06-20T20:27:57.651Z,66.92
2023-06-20T20:33:02.397Z,67.11
2023-06-20T20:38:09.076Z,67.24
2023-06-20T20:43:13.417Z,67.32
2023-06-20T20:48:17.846Z,67.39
2023-06-20T20:53:23.628Z,67.68
2023-06-20T20:58:27.564Z,68.13
2023-06-20T21:03:32.027Z,68.31
2023-06-20T21:08:37.254Z,68.37
2023-06-20T21:13:41.184Z,68.51
2023-06-20T21:18:47.157Z,68.53
2023-06-20T21:23:51.416Z,68.56
2023-06-20T21:28:56.162Z,68.86
2023-06-20T21:34:01.729Z,69.21
2023-06-20T21:39:06.680Z,69.42
2023-06-20T21:44:10.701Z,69.47
2023-06-20T21:49:14.636Z,69.63
2023-06-20T21:54:19.139Z,69.91
2023-06-20T21:59:24.938Z,69.79
2023-06-20T22:04:29.290Z,70.07
2023-06-20T22:09:33.637Z,70.64
2023-06-20T22:14:37.997Z,70.95
2023-06-20T22:19:45.605Z,70.96
2023-06-20T22:24:51.865Z,70.99
2023-06-20T22:29:56.464Z,71.19
2023-06-20T22:35:00.636Z,71.50
2023-06-20T22:40:06.807Z,71.87
2023-06-20T22:45:11.217Z,71.69
2023-06-20T22:50:16.013Z,72.07
2023-06-20T22:55:19.840Z,72.49
2023-06-20T23:00:24.930Z,72.78
2023-06-20T23:05:29.029Z,72.85
2023-06-20T23:11:06.038Z,73.30
2023-06-20T23:16:10.212Z,73.41
2023-06-20T23:21:17.704Z,73.51
2023-06-20T23:26:23.821Z,73.40
2023-06-20T23:31:33.343Z,73.60
2023-06-20T23:36:39.815Z,74.01
2023-06-20T23:41:43.735Z,74.08
2023-06-20T23:46:48.304Z,74.36
2023-06-20T23:51:52.540Z,74.38
2023-06-20T23:56:56.751Z,74.89
